KBMT/BMT METAR and TAF weather

Enter ICAO airport designator
Station Type Date Time Source
KBMT METAR 2022/01/25 04:55 UTC NOAA

KBMT 250455Z AUTO 02006KT 10SM OVC005 09/08 A2989 RMK AO2 T00860081


Station Type Date Time Source
KBMT Decoded METAR 2022/01/25 04:55 UTC NOAA

Station name not available
Jan 24, 2022 - 11:55 PM EST / 2022.01.25 0455 UTC
Wind: from the NNE (020 degrees) at 7 MPH (6 KT):0
Visibility: 10 mile(s):0
Sky conditions: overcast
Temperature: 47.5 F (8.6 C)
Dew Point: 46.6 F (8.1 C)
Relative Humidity: 96%
Pressure (altimeter): 29.89 in. Hg (1012 hPa)
ob: KBMT 250455Z AUTO 02006KT 10SM OVC005 09/08 A2989 RMK AO2 T00860081
cycle: 5

Station Type Date Time Source
KBMT TAF UTC NOAA

Error!

Example: see airport list